Mount Lawley Perth, Western Australia

4:22 PM AWST on July 30, 2015 (GMT +0800)
BlochTech Engineering, East Perth | | Change Station
CLOSE
Current Station
Personal Weather Station
Location: East Perth, WESTERN AUSTRALIA
Elevation: 82 ft
Nearby Weather Stations

Elev 82 ft 31.95 °S, 115.87 °E | Updated 10 minutes ago

Mostly Cloudy
Mostly Cloudy
67.1 °F
Feels Like 67.1 °F
N
1.0
Wind Variable Wind from ENE
Gusts 5.0 mph

Today
High -- | Low -- °F
--% Chance of Precip.
Yesterday
High -- | Low -- °F
Precip. -- in
7:07 AM 5:38 PM
Waxing Gibbous, 98% visible
Pressure 30.04 in
Visibility 6.2 miles
Clouds Few 4000 ft
Scattered Clouds 9500 ft
Mostly Cloudy 21000 ft
Dew Point 61 °F
Humidity 80%
Rainfall 0.02 in
Snow Depth Not available.
UV 1 out of 12
Pollen Not available.
Air Quality Not available.
Flu Activity Not available.
METAR YPPH 300800Z 01010KT 9999 FEW040 SCT095 BKN210 19/14 Q1017 INTER 0800/1100 4000 SHRA BKN010

More Conditions Fewer Conditions

Pressure 30.04 in
Visibility 6.2 miles
Clouds Few 4000 ft
Scattered Clouds 9500 ft
Mostly Cloudy 21000 ft
Dew Point 61 °F
Humidity 80%
Rainfall 0.02 in
Snow Depth Not available.
UV 1 out of 12
Pollen Not available.
Air Quality Not available.
Flu Activity Not available.
METAR YPPH 300800Z 01010KT 9999 FEW040 SCT095 BKN210 19/14 Q1017 INTER 0800/1100 4000 SHRA BKN010

More Conditions Fewer Conditions

10-Day Weather Forecast

×

Almanac

Astronomy

Jul. 30, 2015 Rise Set
Actual Time
Civil Twilight
Nautical Twilight
Astronomical Twilight
Moon
Length of Visible Light
Length of Day
Tomorrow will be .
, % of the Moon is Illuminated

Today's Extremes

Country Highs Country Lows

Community

WunderPhotos

Upload Photos

1,842,315 photos uploaded!

WunderBlogs® & News

Nearby

Air Quality

  Air Quality AQ Index Pollutant
Not available.

Snow Depth

Station Depth Elevation

Earthquake Activity

City Distance Mag. Time & Date
Minimum magnitude displayed is 2.5.

Coastal Water Temperatures

Place Temperature

Stations

Nearby Weather Stations

Station Location Temp. Windchill Dew Point Humidity Wind Precip. Elev Updated Type